createdAt,value
2018-11-07T00:02:17.908Z,78.00
2018-11-07T00:04:46.174Z,78.00
2018-11-07T00:07:14.387Z,78.01
2018-11-07T00:09:42.625Z,78.11
2018-11-07T00:12:10.904Z,77.79
2018-11-07T00:14:39.420Z,78.04
2018-11-07T00:17:07.447Z,78.14
2018-11-07T00:19:35.965Z,77.22
2018-11-07T00:22:04.415Z,76.62
2018-11-07T00:24:32.123Z,76.02
2018-11-07T00:26:59.919Z,76.03
2018-11-07T00:29:27.700Z,75.51
2018-11-07T00:31:55.524Z,75.64
2018-11-07T00:34:23.232Z,75.20
2018-11-07T00:36:51.039Z,74.53
2018-11-07T00:39:18.829Z,74.65
2018-11-07T00:41:46.590Z,74.53
2018-11-07T00:44:14.351Z,74.77
2018-11-07T00:46:42.120Z,74.71
2018-11-07T00:49:09.895Z,73.84
2018-11-07T00:51:37.677Z,73.63
2018-11-07T00:54:05.483Z,73.51
2018-11-07T00:56:33.231Z,73.19
2018-11-07T00:59:00.929Z,72.94
2018-11-07T01:01:28.635Z,72.47
2018-11-07T01:03:56.393Z,72.69
2018-11-07T01:06:24.192Z,73.76
2018-11-07T01:08:51.927Z,74.28
2018-11-07T01:11:19.703Z,74.96
2018-11-07T01:13:47.395Z,75.17
2018-11-07T01:16:15.143Z,74.65
2018-11-07T01:18:42.878Z,74.83
2018-11-07T01:21:10.642Z,75.09
2018-11-07T01:23:38.391Z,75.26
2018-11-07T01:26:06.178Z,74.60
2018-11-07T01:28:33.947Z,74.38
2018-11-07T01:31:01.672Z,74.50
2018-11-07T01:33:29.399Z,73.80
2018-11-07T01:35:57.187Z,74.07
2018-11-07T01:38:24.938Z,74.28
2018-11-07T01:40:52.719Z,73.50
2018-11-07T01:43:20.528Z,73.22
2018-11-07T01:45:48.351Z,73.45
2018-11-07T01:48:16.070Z,73.12
2018-11-07T01:50:43.836Z,73.09
2018-11-07T01:53:11.579Z,74.03
2018-11-07T01:55:39.386Z,74.09
2018-11-07T01:58:07.163Z,74.44
2018-11-07T02:00:34.942Z,75.55
2018-11-07T02:03:02.679Z,77.03
2018-11-07T02:05:30.490Z,77.71
2018-11-07T02:07:58.308Z,77.03
2018-11-07T02:10:26.036Z,78.42
2018-11-07T02:12:53.840Z,79.39
2018-11-07T02:15:21.754Z,78.25
2018-11-07T02:17:50.113Z,77.81
2018-11-07T02:20:18.335Z,79.17
2018-11-07T02:22:46.072Z,79.70
2018-11-07T02:25:13.811Z,78.87
2018-11-07T02:27:41.613Z,79.01
2018-11-07T02:30:11.371Z,79.35
2018-11-07T02:32:39.151Z,78.94
2018-11-07T02:35:07.044Z,80.04
2018-11-07T02:37:34.787Z,79.91
2018-11-07T02:40:02.607Z,79.42
2018-11-07T02:42:30.400Z,78.98
2018-11-07T02:44:58.188Z,79.24
2018-11-07T02:47:25.939Z,79.15
2018-11-07T02:49:53.704Z,78.91
2018-11-07T02:52:21.524Z,79.42
2018-11-07T02:54:49.280Z,78.86
2018-11-07T02:57:17.230Z,77.79
2018-11-07T02:59:45.587Z,77.35
2018-11-07T03:02:13.932Z,77.20
2018-11-07T03:04:42.387Z,77.01
2018-11-07T03:07:10.634Z,76.67
2018-11-07T03:09:39.144Z,75.75
2018-11-07T03:12:06.955Z,75.17
2018-11-07T03:14:34.661Z,75.30
2018-11-07T03:17:02.442Z,75.09
2018-11-07T03:19:30.180Z,74.39
2018-11-07T03:21:57.880Z,73.96
2018-11-07T03:24:25.679Z,73.25
2018-11-07T03:26:53.420Z,73.24
2018-11-07T03:29:21.103Z,73.83
2018-11-07T03:31:48.887Z,73.72
2018-11-07T03:34:16.660Z,74.06
2018-11-07T03:36:44.452Z,74.62
2018-11-07T03:39:12.916Z,74.23
2018-11-07T03:41:41.195Z,73.57
2018-11-07T03:44:09.907Z,73.02
2018-11-07T03:46:38.333Z,72.88
2018-11-07T03:49:06.577Z,72.59
2018-11-07T03:51:34.887Z,72.24
2018-11-07T03:54:03.274Z,72.65
2018-11-07T03:56:31.678Z,72.27
2018-11-07T03:58:59.944Z,71.81
2018-11-07T04:01:27.687Z,71.21
2018-11-07T04:03:55.503Z,71.19
2018-11-07T04:06:23.279Z,71.21
2018-11-07T04:08:51.016Z,71.28
2018-11-07T04:11:19.291Z,71.23
2018-11-07T04:13:47.487Z,71.13
2018-11-07T04:16:15.628Z,71.59
2018-11-07T04:18:43.890Z,71.80
2018-11-07T04:21:12.368Z,71.31
2018-11-07T04:23:40.672Z,71.65
2018-11-07T04:26:09.127Z,72.39
2018-11-07T04:28:37.383Z,73.17
2018-11-07T04:31:05.849Z,74.35
2018-11-07T04:33:34.175Z,74.64
2018-11-07T04:36:02.444Z,75.48
2018-11-07T04:38:30.702Z,74.82
2018-11-07T04:40:59.012Z,74.90
2018-11-07T04:43:27.248Z,74.68
2018-11-07T04:45:55.478Z,74.39
2018-11-07T04:48:23.639Z,74.43
2018-11-07T04:50:51.838Z,74.90
2018-11-07T04:53:19.720Z,74.96
2018-11-07T04:55:47.490Z,75.01
2018-11-07T04:58:15.264Z,75.29
2018-11-07T05:00:43.061Z,74.67
2018-11-07T05:03:10.860Z,74.86
2018-11-07T05:05:38.547Z,74.56
2018-11-07T05:08:06.291Z,74.03
2018-11-07T05:10:34.063Z,73.97
2018-11-07T05:13:01.770Z,74.33
2018-11-07T05:15:29.511Z,74.17
2018-11-07T05:17:57.282Z,73.75
2018-11-07T05:20:24.989Z,73.15
2018-11-07T05:22:52.730Z,73.54
2018-11-07T05:25:20.533Z,73.74
2018-11-07T05:27:48.222Z,73.85
2018-11-07T05:30:15.969Z,73.99
2018-11-07T05:32:43.792Z,73.55
2018-11-07T05:35:11.532Z,73.47
2018-11-07T05:37:39.262Z,72.92
2018-11-07T05:40:07.097Z,71.97
2018-11-07T05:42:34.841Z,72.39
2018-11-07T05:45:02.575Z,72.35
2018-11-07T05:47:30.337Z,71.16
2018-11-07T05:49:58.107Z,70.89
2018-11-07T05:52:25.911Z,70.24
2018-11-07T05:54:53.782Z,69.95
2018-11-07T05:57:21.518Z,70.47
2018-11-07T05:59:49.287Z,71.55
2018-11-07T06:02:17.056Z,72.57
2018-11-07T06:04:44.858Z,71.20
2018-11-07T06:07:12.671Z,71.55
2018-11-07T06:09:40.472Z,72.79
2018-11-07T06:12:08.306Z,73.53
2018-11-07T06:14:36.079Z,72.75
2018-11-07T06:17:04.038Z,73.55
2018-11-07T06:19:31.825Z,73.63
2018-11-07T06:22:00.260Z,74.17
2018-11-07T06:24:28.855Z,74.30
2018-11-07T06:26:57.022Z,73.74
2018-11-07T06:29:25.600Z,72.50
2018-11-07T06:31:53.823Z,72.00
2018-11-07T06:34:22.035Z,72.23
2018-11-07T06:36:50.523Z,71.64
2018-11-07T06:39:18.610Z,71.18
2018-11-07T06:41:46.324Z,69.68
2018-11-07T06:44:14.091Z,70.65
2018-11-07T06:46:41.852Z,69.86
2018-11-07T06:49:09.611Z,69.71
2018-11-07T06:51:37.403Z,70.29
2018-11-07T06:54:05.286Z,70.42
2018-11-07T06:56:33.123Z,69.84
2018-11-07T06:59:00.827Z,71.06
2018-11-07T07:01:28.670Z,71.48
2018-11-07T07:03:56.448Z,69.20
2018-11-07T07:06:24.375Z,69.46
2018-11-07T07:08:52.278Z,68.63
2018-11-07T07:11:20.007Z,67.88
2018-11-07T07:13:47.771Z,67.12
2018-11-07T07:16:15.583Z,66.20
2018-11-07T07:18:43.364Z,65.80
2018-11-07T07:21:11.103Z,65.23
2018-11-07T07:23:38.867Z,65.88
2018-11-07T07:26:06.679Z,65.15
2018-11-07T07:28:34.416Z,64.75
2018-11-07T07:31:02.192Z,65.14
2018-11-07T07:33:29.946Z,67.08
2018-11-07T07:35:57.751Z,66.99
2018-11-07T07:38:25.564Z,66.82
2018-11-07T07:40:53.448Z,65.54
2018-11-07T07:43:21.209Z,65.38
2018-11-07T07:45:49.035Z,64.36
2018-11-07T07:48:16.838Z,63.56
2018-11-07T07:50:44.544Z,63.41
2018-11-07T07:53:12.431Z,62.91
2018-11-07T07:55:40.192Z,61.74
2018-11-07T07:58:07.974Z,61.18
2018-11-07T08:00:35.770Z,61.67
2018-11-07T08:03:03.543Z,61.25
2018-11-07T08:05:31.307Z,59.86
2018-11-07T08:07:59.276Z,58.33
2018-11-07T08:10:27.011Z,60.66
2018-11-07T08:12:54.793Z,60.45
2018-11-07T08:15:22.572Z,60.12
2018-11-07T08:17:50.306Z,58.95
2018-11-07T08:20:18.557Z,58.43
2018-11-07T08:22:47.011Z,58.07
2018-11-07T08:25:14.765Z,57.78
2018-11-07T08:27:42.600Z,58.43
2018-11-07T08:30:12.700Z,57.81
2018-11-07T08:32:40.732Z,58.74
2018-11-07T08:35:09.827Z,57.81
2018-11-07T08:37:37.727Z,56.37
2018-11-07T08:40:11.575Z,56.94
2018-11-07T08:42:39.701Z,59.15
2018-11-07T08:45:08.328Z,57.96
2018-11-07T08:47:36.042Z,61.79
2018-11-07T08:50:04.645Z,61.17
2018-11-07T08:52:32.451Z,59.48
2018-11-07T08:55:00.215Z,60.38
2018-11-07T08:57:27.979Z,61.13
2018-11-07T08:59:55.844Z,58.46
2018-11-07T09:02:23.604Z,58.39
2018-11-07T09:04:51.415Z,56.62
2018-11-07T09:07:19.183Z,55.08
2018-11-07T09:09:46.927Z,56.99
2018-11-07T09:12:14.824Z,59.80
2018-11-07T09:14:42.488Z,58.78
2018-11-07T09:17:10.251Z,55.92
2018-11-07T09:19:38.042Z,56.03
2018-11-07T09:22:06.005Z,56.12
2018-11-07T09:24:33.918Z,57.75
2018-11-07T09:27:01.697Z,57.58
2018-11-07T09:29:29.445Z,57.27
2018-11-07T09:31:57.198Z,58.14
2018-11-07T09:34:24.970Z,58.24
2018-11-07T09:36:52.729Z,56.71
2018-11-07T09:39:20.487Z,54.41
2018-11-07T09:41:48.311Z,53.46
2018-11-07T09:44:16.100Z,52.64
2018-11-07T09:46:43.888Z,51.50
2018-11-07T09:49:11.762Z,51.57
2018-11-07T09:51:39.469Z,51.18
2018-11-07T09:54:07.240Z,51.86
2018-11-07T09:56:35.062Z,51.46
2018-11-07T09:59:02.824Z,51.82
2018-11-07T10:01:30.599Z,49.80
2018-11-07T10:03:58.351Z,49.86
2018-11-07T10:06:26.106Z,50.26
2018-11-07T10:08:53.901Z,51.48
2018-11-07T10:11:21.680Z,51.18
2018-11-07T10:13:49.370Z,51.29
2018-11-07T10:16:17.139Z,50.75
2018-11-07T10:18:44.975Z,50.64
2018-11-07T10:21:12.791Z,51.28
2018-11-07T10:23:40.499Z,52.29
2018-11-07T10:26:08.394Z,50.66
2018-11-07T10:28:36.346Z,49.22
2018-11-07T10:31:04.252Z,47.68
2018-11-07T10:33:32.008Z,47.78
2018-11-07T10:35:59.775Z,47.81
2018-11-07T10:38:27.654Z,46.99
2018-11-07T10:40:55.420Z,45.92
2018-11-07T10:43:23.151Z,45.78
2018-11-07T10:45:51.102Z,46.59
2018-11-07T10:48:18.843Z,47.55
2018-11-07T10:50:46.672Z,46.05
2018-11-07T10:53:14.432Z,48.18
2018-11-07T10:55:42.251Z,49.34
2018-11-07T10:58:09.974Z,51.08
2018-11-07T11:00:43.361Z,51.13
2018-11-07T11:03:16.518Z,49.79
2018-11-07T11:05:44.322Z,52.62
2018-11-07T11:08:12.062Z,53.36
2018-11-07T11:10:39.886Z,51.45
2018-11-07T11:13:07.739Z,51.81
2018-11-07T11:15:35.443Z,52.68
2018-11-07T11:18:03.175Z,51.12
2018-11-07T11:20:30.970Z,50.02
2018-11-07T11:22:58.715Z,49.45
2018-11-07T11:25:26.451Z,48.10
2018-11-07T11:27:54.243Z,47.20
2018-11-07T11:30:21.978Z,47.24
2018-11-07T11:32:49.651Z,47.26
2018-11-07T11:35:17.541Z,47.71
2018-11-07T11:37:45.230Z,46.53
2018-11-07T11:40:14.160Z,45.65
2018-11-07T11:42:42.737Z,44.40
2018-11-07T11:45:12.245Z,45.26
2018-11-07T11:47:40.548Z,45.39
2018-11-07T11:50:11.036Z,44.24
2018-11-07T11:52:38.948Z,43.71
2018-11-07T11:55:06.691Z,44.26
2018-11-07T11:57:34.466Z,45.92
2018-11-07T12:00:02.573Z,45.44
2018-11-07T12:02:30.084Z,46.25
2018-11-07T12:04:57.852Z,46.22
2018-11-07T12:07:25.587Z,48.54
2018-11-07T12:09:53.543Z,48.04
2018-11-07T12:12:21.351Z,48.75
2018-11-07T12:14:49.120Z,48.92
2018-11-07T12:17:16.899Z,48.42
2018-11-07T12:19:44.651Z,49.54
2018-11-07T12:22:12.413Z,49.99
2018-11-07T12:24:40.192Z,50.79
2018-11-07T12:27:07.976Z,51.18
2018-11-07T12:29:35.727Z,51.83
2018-11-07T12:32:03.753Z,51.49
2018-11-07T12:34:31.491Z,49.98
2018-11-07T12:36:59.642Z,49.13
2018-11-07T12:39:27.346Z,50.73
2018-11-07T12:41:55.183Z,52.33
2018-11-07T12:44:22.888Z,52.12
2018-11-07T12:46:50.613Z,50.85
2018-11-07T12:49:18.451Z,51.23
2018-11-07T12:51:46.180Z,50.54
2018-11-07T12:54:13.970Z,49.66
2018-11-07T12:56:41.796Z,48.54
2018-11-07T12:59:09.515Z,50.06
2018-11-07T13:01:37.266Z,50.29
2018-11-07T13:04:05.179Z,50.38
2018-11-07T13:06:32.931Z,50.60
2018-11-07T13:09:00.667Z,49.89
2018-11-07T13:11:28.489Z,49.82
2018-11-07T13:13:56.196Z,49.54
2018-11-07T13:16:23.956Z,50.17
2018-11-07T13:18:51.751Z,52.28
2018-11-07T13:21:19.479Z,53.75
2018-11-07T13:23:47.256Z,52.79
2018-11-07T13:26:15.092Z,52.99
2018-11-07T13:28:42.903Z,52.96
2018-11-07T13:31:11.109Z,54.15
2018-11-07T13:33:39.978Z,54.11
2018-11-07T13:36:08.364Z,55.72
2018-11-07T13:38:36.887Z,55.20
2018-11-07T13:41:05.630Z,56.26
2018-11-07T13:43:33.922Z,55.60
2018-11-07T13:46:02.219Z,54.74
2018-11-07T13:48:30.678Z,54.98
2018-11-07T13:50:58.763Z,55.75
2018-11-07T13:53:27.059Z,55.99
2018-11-07T13:55:55.319Z,56.50
2018-11-07T13:58:23.623Z,56.88
2018-11-07T14:00:51.903Z,56.35
2018-11-07T14:03:20.056Z,57.66
2018-11-07T14:05:48.493Z,58.68
2018-11-07T14:08:16.160Z,58.89
2018-11-07T14:10:43.932Z,59.67
2018-11-07T14:13:11.727Z,58.48
2018-11-07T14:15:39.517Z,58.17
2018-11-07T14:18:07.321Z,58.38
2018-11-07T14:20:35.161Z,58.83
2018-11-07T14:23:02.896Z,59.54
2018-11-07T14:25:30.667Z,59.21
2018-11-07T14:27:58.569Z,58.87
2018-11-07T14:30:26.298Z,58.84
2018-11-07T14:32:59.224Z,59.13
2018-11-07T14:35:27.095Z,60.10
2018-11-07T14:37:55.498Z,60.02
2018-11-07T14:40:23.398Z,59.95
2018-11-07T14:42:51.151Z,60.53
2018-11-07T14:45:18.882Z,60.48
2018-11-07T14:47:46.762Z,60.07
2018-11-07T14:50:14.684Z,59.32
2018-11-07T14:52:42.872Z,59.41
2018-11-07T14:55:11.567Z,59.02
2018-11-07T14:57:39.379Z,58.77
2018-11-07T15:00:10.559Z,58.66
2018-11-07T15:02:39.007Z,59.01
2018-11-07T15:05:08.224Z,58.99
2018-11-07T15:07:36.087Z,59.45
2018-11-07T15:10:05.011Z,59.28
2018-11-07T15:12:33.479Z,59.12
2018-11-07T15:15:01.724Z,58.89
2018-11-07T15:17:30.079Z,60.31
2018-11-07T15:19:58.195Z,58.80
2018-11-07T15:22:26.581Z,59.29
2018-11-07T15:24:54.957Z,59.91
2018-11-07T15:27:23.331Z,59.18
2018-11-07T15:29:51.462Z,58.79
2018-11-07T15:32:19.557Z,58.45
2018-11-07T15:34:48.044Z,56.85
2018-11-07T15:37:16.327Z,57.15
2018-11-07T15:39:44.788Z,56.66
2018-11-07T15:42:13.259Z,56.26
2018-11-07T15:44:41.444Z,56.22
2018-11-07T15:47:09.387Z,56.32
2018-11-07T15:49:41.208Z,57.28
2018-11-07T15:52:09.595Z,56.70
2018-11-07T15:54:38.107Z,56.69
2018-11-07T15:57:06.339Z,57.05
2018-11-07T15:59:34.867Z,56.10
2018-11-07T16:02:03.143Z,57.27
2018-11-07T16:04:31.575Z,56.91
2018-11-07T16:06:59.746Z,56.32
2018-11-07T16:09:27.726Z,56.92
2018-11-07T16:11:55.992Z,56.84
2018-11-07T16:14:24.582Z,56.54
2018-11-07T16:16:52.999Z,56.47
2018-11-07T16:19:21.288Z,56.32
2018-11-07T16:21:49.452Z,56.09
2018-11-07T16:24:17.791Z,55.76
2018-11-07T16:26:45.905Z,56.35
2018-11-07T16:29:14.367Z,56.44
2018-11-07T16:31:42.467Z,57.28
2018-11-07T16:34:10.685Z,56.09
2018-11-07T16:36:39.029Z,56.10
2018-11-07T16:39:08.915Z,58.24
2018-11-07T16:41:37.641Z,57.01
2018-11-07T16:44:05.675Z,56.30
2018-11-07T16:46:33.435Z,56.34
2018-11-07T16:49:01.782Z,56.82
2018-11-07T16:51:30.035Z,55.43
2018-11-07T16:53:58.352Z,55.08
2018-11-07T16:56:26.587Z,56.12
2018-11-07T16:58:55.095Z,57.52
2018-11-07T17:01:23.143Z,57.32
2018-11-07T17:03:51.418Z,58.34
2018-11-07T17:06:20.073Z,59.70
2018-11-07T17:08:48.433Z,58.77
2018-11-07T17:11:16.752Z,60.01
2018-11-07T17:13:45.218Z,59.52
2018-11-07T17:16:13.389Z,60.01
2018-11-07T17:18:41.472Z,59.54
2018-11-07T17:21:09.844Z,59.37
2018-11-07T17:23:37.910Z,58.17
2018-11-07T17:26:06.316Z,57.71
2018-11-07T17:28:34.596Z,57.44
2018-11-07T17:31:03.136Z,58.08
2018-11-07T17:33:31.376Z,57.54
2018-11-07T17:35:59.876Z,57.99
2018-11-07T17:38:28.261Z,57.38
2018-11-07T17:40:56.393Z,57.51
2018-11-07T17:43:24.900Z,57.78
2018-11-07T17:45:53.164Z,57.76
2018-11-07T17:48:21.801Z,57.57
2018-11-07T17:50:50.135Z,56.69
2018-11-07T17:53:18.819Z,56.69
2018-11-07T17:55:47.063Z,58.32
2018-11-07T17:58:15.575Z,55.98
2018-11-07T18:00:43.811Z,55.96
2018-11-07T18:03:12.306Z,57.24
2018-11-07T18:05:40.623Z,58.01
2018-11-07T18:08:09.103Z,57.00
2018-11-07T18:10:37.340Z,56.21
2018-11-07T18:13:05.860Z,56.18
2018-11-07T18:15:36.420Z,56.04
2018-11-07T18:18:04.829Z,57.54
2018-11-07T18:20:33.335Z,56.54
2018-11-07T18:23:01.571Z,56.70
2018-11-07T18:25:30.095Z,56.77
2018-11-07T18:27:58.431Z,57.04
2018-11-07T18:30:26.588Z,56.43
2018-11-07T18:32:54.971Z,56.25
2018-11-07T18:35:22.960Z,55.94
2018-11-07T18:37:50.583Z,55.39
2018-11-07T18:40:19.567Z,55.97
2018-11-07T18:42:47.395Z,56.48
2018-11-07T18:45:15.560Z,56.00
2018-11-07T18:47:45.096Z,55.12
2018-11-07T18:50:14.443Z,56.52
2018-11-07T18:52:42.614Z,55.75
2018-11-07T18:55:11.709Z,55.89
2018-11-07T18:57:39.622Z,55.75
2018-11-07T19:00:09.875Z,55.86
2018-11-07T19:02:37.660Z,55.94
2018-11-07T19:05:05.932Z,54.79
2018-11-07T19:07:35.304Z,55.14
2018-11-07T19:10:03.199Z,55.67
2018-11-07T19:12:31.007Z,55.34
2018-11-07T19:14:58.829Z,54.91
2018-11-07T19:17:26.571Z,54.71
2018-11-07T19:19:54.392Z,53.95
2018-11-07T19:22:22.121Z,54.47
2018-11-07T19:24:49.899Z,53.79
2018-11-07T19:27:17.803Z,53.97
2018-11-07T19:29:45.619Z,54.67
2018-11-07T19:32:13.791Z,54.58
2018-11-07T19:34:41.647Z,54.56
2018-11-07T19:37:09.470Z,54.45
2018-11-07T19:39:37.625Z,54.44
2018-11-07T19:42:05.502Z,55.95
2018-11-07T19:44:33.306Z,53.38
2018-11-07T19:47:01.120Z,54.98
2018-11-07T19:49:28.948Z,55.68
2018-11-07T19:51:56.823Z,55.55
2018-11-07T19:54:24.795Z,55.38
2018-11-07T19:56:52.727Z,54.59
2018-11-07T19:59:20.564Z,55.36
2018-11-07T20:01:48.928Z,54.46
2018-11-07T20:04:17.175Z,54.76
2018-11-07T20:06:45.335Z,55.07
2018-11-07T20:09:13.212Z,55.56
2018-11-07T20:11:40.999Z,55.55
2018-11-07T20:14:08.748Z,59.47
2018-11-07T20:16:36.599Z,55.89
2018-11-07T20:19:04.474Z,56.14
2018-11-07T20:21:32.280Z,56.45
2018-11-07T20:24:00.222Z,57.01
2018-11-07T20:26:28.110Z,56.13
2018-11-07T20:28:56.013Z,56.76
2018-11-07T20:31:23.843Z,56.49
2018-11-07T20:33:51.621Z,55.85
2018-11-07T20:36:19.432Z,55.82
2018-11-07T20:38:47.503Z,54.68
2018-11-07T20:41:15.635Z,54.33
2018-11-07T20:43:44.121Z,54.76
2018-11-07T20:46:12.378Z,53.67
2018-11-07T20:48:41.170Z,54.27
2018-11-07T20:51:09.143Z,57.89
2018-11-07T20:53:37.716Z,54.09
2018-11-07T20:56:06.129Z,54.42
2018-11-07T20:58:34.478Z,53.96
2018-11-07T21:01:02.899Z,55.72
2018-11-07T21:03:31.154Z,54.69
2018-11-07T21:05:59.639Z,55.73
2018-11-07T21:08:27.903Z,55.24
2018-11-07T21:10:56.388Z,55.49
2018-11-07T21:13:24.447Z,56.19
2018-11-07T21:15:52.908Z,56.66
2018-11-07T21:18:21.183Z,56.41
2018-11-07T21:20:49.659Z,55.81
2018-11-07T21:23:17.951Z,55.99
2018-11-07T21:25:46.452Z,55.82
2018-11-07T21:28:14.666Z,55.36
2018-11-07T21:30:42.979Z,56.01
2018-11-07T21:33:11.279Z,55.43
2018-11-07T21:35:39.732Z,55.92
2018-11-07T21:38:08.019Z,55.57
2018-11-07T21:40:36.503Z,55.59
2018-11-07T21:43:04.809Z,56.29
2018-11-07T21:45:33.242Z,57.64
2018-11-07T21:48:01.016Z,56.00
2018-11-07T21:50:29.160Z,55.51
2018-11-07T21:52:57.416Z,57.08
2018-11-07T21:55:26.055Z,55.48
2018-11-07T21:57:54.374Z,56.75
2018-11-07T22:00:22.519Z,56.02
2018-11-07T22:02:50.373Z,55.36
2018-11-07T22:05:18.576Z,55.71
2018-11-07T22:07:46.360Z,54.83
2018-11-07T22:10:15.464Z,56.64
2018-11-07T22:12:43.220Z,55.49
2018-11-07T22:15:11.003Z,55.84
2018-11-07T22:17:38.853Z,55.77
2018-11-07T22:20:08.967Z,55.36
2018-11-07T22:22:37.140Z,55.78
2018-11-07T22:25:05.491Z,55.74
2018-11-07T22:27:33.752Z,56.08
2018-11-07T22:30:02.320Z,56.29
2018-11-07T22:32:30.508Z,56.71
2018-11-07T22:34:58.939Z,55.24
2018-11-07T22:37:27.095Z,55.74
2018-11-07T22:39:55.508Z,56.40
2018-11-07T22:42:23.811Z,56.01
2018-11-07T22:44:52.265Z,57.48
2018-11-07T22:47:20.584Z,56.98
2018-11-07T22:49:48.867Z,56.78
2018-11-07T22:52:17.098Z,56.24
2018-11-07T22:54:45.401Z,56.89
2018-11-07T22:57:13.876Z,56.71
2018-11-07T22:59:42.125Z,57.64
2018-11-07T23:02:10.668Z,58.46
2018-11-07T23:04:38.816Z,58.61
2018-11-07T23:07:07.170Z,58.35
2018-11-07T23:09:34.908Z,57.86
2018-11-07T23:12:03.325Z,57.76
2018-11-07T23:14:31.548Z,57.44
2018-11-07T23:16:59.699Z,58.05
2018-11-07T23:19:28.260Z,57.73
2018-11-07T23:21:56.416Z,58.19
2018-11-07T23:24:24.884Z,57.57
2018-11-07T23:26:53.176Z,57.50
2018-11-07T23:29:21.673Z,57.46
2018-11-07T23:31:49.989Z,56.58
2018-11-07T23:34:18.396Z,57.41
2018-11-07T23:36:46.655Z,57.38
2018-11-07T23:39:14.799Z,58.18
2018-11-07T23:41:43.219Z,57.18
2018-11-07T23:44:11.492Z,57.64
2018-11-07T23:46:39.996Z,57.44
2018-11-07T23:49:08.250Z,59.09
2018-11-07T23:51:41.295Z,58.19
2018-11-07T23:54:09.607Z,57.15
2018-11-07T23:56:37.806Z,57.39
2018-11-07T23:59:06.266Z,57.37
